sensor_id;sensor_type;location;lat;lon;timestamp;temperature;humidity
14585;DHT22;7379;51.506;11.876;2024-01-10T00:00:17;-4.00;59.90
14585;DHT22;7379;51.506;11.876;2024-01-10T00:02:43;-4.10;59.80
14585;DHT22;7379;51.506;11.876;2024-01-10T00:05:10;-4.10;59.80
14585;DHT22;7379;51.506;11.876;2024-01-10T00:07:37;-4.10;59.90
14585;DHT22;7379;51.506;11.876;2024-01-10T00:10:04;-4.10;59.90
14585;DHT22;7379;51.506;11.876;2024-01-10T00:12:33;-4.10;59.80
14585;DHT22;7379;51.506;11.876;2024-01-10T00:15:02;-4.10;59.80
14585;DHT22;7379;51.506;11.876;2024-01-10T00:17:30;-4.10;59.80
14585;DHT22;7379;51.506;11.876;2024-01-10T00:19:57;-4.10;59.80
14585;DHT22;7379;51.506;11.876;2024-01-10T00:22:23;-4.10;59.90
14585;DHT22;7379;51.506;11.876;2024-01-10T00:24:50;-4.10;59.80
14585;DHT22;7379;51.506;11.876;2024-01-10T00:27:17;-4.10;59.80
14585;DHT22;7379;51.506;11.876;2024-01-10T00:29:45;-4.10;59.80
14585;DHT22;7379;51.506;11.876;2024-01-10T00:32:12;-4.10;59.80
14585;DHT22;7379;51.506;11.876;2024-01-10T00:34:38;-4.10;59.90
14585;DHT22;7379;51.506;11.876;2024-01-10T00:37:05;-4.10;59.90
14585;DHT22;7379;51.506;11.876;2024-01-10T00:39:32;-4.10;59.80
14585;DHT22;7379;51.506;11.876;2024-01-10T00:41:59;-4.10;59.80
14585;DHT22;7379;51.506;11.876;2024-01-10T00:44:25;-4.10;59.80
14585;DHT22;7379;51.506;11.876;2024-01-10T00:46:53;-4.10;59.90
14585;DHT22;7379;51.506;11.876;2024-01-10T00:49:20;-4.10;59.80
14585;DHT22;7379;51.506;11.876;2024-01-10T00:51:47;-4.10;59.80
14585;DHT22;7379;51.506;11.876;2024-01-10T00:54:14;-4.20;59.80
14585;DHT22;7379;51.506;11.876;2024-01-10T00:56:41;-4.20;59.80
14585;DHT22;7379;51.506;11.876;2024-01-10T00:59:07;-4.20;59.70
14585;DHT22;7379;51.506;11.876;2024-01-10T01:01:34;-4.20;59.70
14585;DHT22;7379;51.506;11.876;2024-01-10T01:04:02;-4.20;59.60
14585;DHT22;7379;51.506;11.876;2024-01-10T01:06:29;-4.20;59.60
14585;DHT22;7379;51.506;11.876;2024-01-10T01:08:56;-4.20;59.70
14585;DHT22;7379;51.506;11.876;2024-01-10T01:11:24;-4.20;59.80
14585;DHT22;7379;51.506;11.876;2024-01-10T01:13:50;-4.20;59.70
14585;DHT22;7379;51.506;11.876;2024-01-10T01:16:17;-4.20;59.70
14585;DHT22;7379;51.506;11.876;2024-01-10T01:18:44;-4.20;59.70
14585;DHT22;7379;51.506;11.876;2024-01-10T01:21:12;-4.20;59.70
14585;DHT22;7379;51.506;11.876;2024-01-10T01:23:39;-4.20;59.70
14585;DHT22;7379;51.506;11.876;2024-01-10T01:26:06;-4.20;59.70
14585;DHT22;7379;51.506;11.876;2024-01-10T01:28:32;-4.20;59.70
14585;DHT22;7379;51.506;11.876;2024-01-10T01:30:59;-4.20;59.70
14585;DHT22;7379;51.506;11.876;2024-01-10T01:33:26;-4.20;59.60
14585;DHT22;7379;51.506;11.876;2024-01-10T01:35:53;-4.30;59.60
14585;DHT22;7379;51.506;11.876;2024-01-10T01:38:21;-4.30;59.60
14585;DHT22;7379;51.506;11.876;2024-01-10T01:40:48;-4.20;59.60
14585;DHT22;7379;51.506;11.876;2024-01-10T01:43:19;-4.20;59.70
14585;DHT22;7379;51.506;11.876;2024-01-10T01:45:46;-4.30;59.60
14585;DHT22;7379;51.506;11.876;2024-01-10T01:48:13;-4.30;59.60
14585;DHT22;7379;51.506;11.876;2024-01-10T01:50:40;-4.30;59.60
14585;DHT22;7379;51.506;11.876;2024-01-10T01:53:07;-4.30;59.60
14585;DHT22;7379;51.506;11.876;2024-01-10T01:55:35;-4.30;59.60
14585;DHT22;7379;51.506;11.876;2024-01-10T01:58:02;-4.30;59.60
14585;DHT22;7379;51.506;11.876;2024-01-10T02:00:29;-4.30;59.60
14585;DHT22;7379;51.506;11.876;2024-01-10T02:02:57;-4.30;59.60
14585;DHT22;7379;51.506;11.876;2024-01-10T02:05:25;-4.30;59.60
14585;DHT22;7379;51.506;11.876;2024-01-10T02:07:51;-4.30;59.60
14585;DHT22;7379;51.506;11.876;2024-01-10T02:10:19;-4.30;59.60
14585;DHT22;7379;51.506;11.876;2024-01-10T02:12:47;-4.30;59.50
14585;DHT22;7379;51.506;11.876;2024-01-10T02:15:14;-4.30;59.50
14585;DHT22;7379;51.506;11.876;2024-01-10T02:17:42;-4.30;59.50
14585;DHT22;7379;51.506;11.876;2024-01-10T02:20:09;-4.30;59.50
14585;DHT22;7379;51.506;11.876;2024-01-10T02:22:36;-4.30;59.50
14585;DHT22;7379;51.506;11.876;2024-01-10T02:25:05;-4.40;59.40
14585;DHT22;7379;51.506;11.876;2024-01-10T02:27:32;-4.40;59.50
14585;DHT22;7379;51.506;11.876;2024-01-10T02:30:01;-4.40;59.50
14585;DHT22;7379;51.506;11.876;2024-01-10T02:32:28;-4.40;59.50
14585;DHT22;7379;51.506;11.876;2024-01-10T02:34:54;-4.30;59.50
14585;DHT22;7379;51.506;11.876;2024-01-10T02:37:21;-4.40;59.50
14585;DHT22;7379;51.506;11.876;2024-01-10T02:39:48;-4.40;59.40
14585;DHT22;7379;51.506;11.876;2024-01-10T02:42:16;-4.40;59.40
14585;DHT22;7379;51.506;11.876;2024-01-10T02:44:43;-4.40;59.40
14585;DHT22;7379;51.506;11.876;2024-01-10T02:47:11;-4.40;59.40
14585;DHT22;7379;51.506;11.876;2024-01-10T02:49:38;-4.40;59.40
14585;DHT22;7379;51.506;11.876;2024-01-10T02:52:06;-4.40;59.40
14585;DHT22;7379;51.506;11.876;2024-01-10T02:54:32;-4.40;59.40
14585;DHT22;7379;51.506;11.876;2024-01-10T02:56:59;-4.40;59.40
14585;DHT22;7379;51.506;11.876;2024-01-10T02:59:27;-4.40;59.40
14585;DHT22;7379;51.506;11.876;2024-01-10T03:01:54;-4.40;59.40
14585;DHT22;7379;51.506;11.876;2024-01-10T03:04:20;-4.40;59.30
14585;DHT22;7379;51.506;11.876;2024-01-10T03:06:47;-4.40;59.30
14585;DHT22;7379;51.506;11.876;2024-01-10T03:09:14;-4.40;59.30
14585;DHT22;7379;51.506;11.876;2024-01-10T03:11:40;-4.40;59.40
14585;DHT22;7379;51.506;11.876;2024-01-10T03:14:09;-4.50;59.20
14585;DHT22;7379;51.506;11.876;2024-01-10T03:16:37;-4.50;59.20
14585;DHT22;7379;51.506;11.876;2024-01-10T03:19:04;-4.50;59.20
14585;DHT22;7379;51.506;11.876;2024-01-10T03:21:31;-4.50;59.20
14585;DHT22;7379;51.506;11.876;2024-01-10T03:23:59;-4.50;59.20
14585;DHT22;7379;51.506;11.876;2024-01-10T03:26:27;-4.50;59.30
14585;DHT22;7379;51.506;11.876;2024-01-10T03:28:55;-4.50;59.30
14585;DHT22;7379;51.506;11.876;2024-01-10T03:31:22;-4.50;59.30
14585;DHT22;7379;51.506;11.876;2024-01-10T03:33:50;-4.50;59.90
14585;DHT22;7379;51.506;11.876;2024-01-10T03:36:18;-4.50;59.20
14585;DHT22;7379;51.506;11.876;2024-01-10T03:38:45;-4.50;59.30
14585;DHT22;7379;51.506;11.876;2024-01-10T03:41:13;-4.50;59.20
14585;DHT22;7379;51.506;11.876;2024-01-10T03:43:40;-4.50;59.20
14585;DHT22;7379;51.506;11.876;2024-01-10T03:46:07;-4.50;59.20
14585;DHT22;7379;51.506;11.876;2024-01-10T03:48:34;-4.50;59.20
14585;DHT22;7379;51.506;11.876;2024-01-10T03:51:02;-4.50;59.30
14585;DHT22;7379;51.506;11.876;2024-01-10T03:53:30;-4.60;59.20
14585;DHT22;7379;51.506;11.876;2024-01-10T03:55:57;-4.50;59.20
14585;DHT22;7379;51.506;11.876;2024-01-10T03:58:24;-4.60;59.10
14585;DHT22;7379;51.506;11.876;2024-01-10T04:00:51;-4.60;59.10
14585;DHT22;7379;51.506;11.876;2024-01-10T04:03:18;-4.60;59.20
14585;DHT22;7379;51.506;11.876;2024-01-10T04:05:45;-4.60;59.20
14585;DHT22;7379;51.506;11.876;2024-01-10T04:08:13;-4.60;59.20
14585;DHT22;7379;51.506;11.876;2024-01-10T04:10:40;-4.60;59.20
14585;DHT22;7379;51.506;11.876;2024-01-10T04:13:06;-4.60;59.20
14585;DHT22;7379;51.506;11.876;2024-01-10T04:15:33;-4.60;59.20
14585;DHT22;7379;51.506;11.876;2024-01-10T04:18:01;-4.60;59.20
14585;DHT22;7379;51.506;11.876;2024-01-10T04:20:28;-4.60;59.20
14585;DHT22;7379;51.506;11.876;2024-01-10T04:22:55;-4.60;59.20
14585;DHT22;7379;51.506;11.876;2024-01-10T04:25:23;-4.60;59.20
14585;DHT22;7379;51.506;11.876;2024-01-10T04:27:49;-4.60;59.20
14585;DHT22;7379;51.506;11.876;2024-01-10T04:30:16;-4.60;59.20
14585;DHT22;7379;51.506;11.876;2024-01-10T04:32:43;-4.60;59.10
14585;DHT22;7379;51.506;11.876;2024-01-10T04:35:10;-4.60;59.20
14585;DHT22;7379;51.506;11.876;2024-01-10T04:37:36;-4.60;59.20
14585;DHT22;7379;51.506;11.876;2024-01-10T04:40:04;-4.60;59.20
14585;DHT22;7379;51.506;11.876;2024-01-10T04:42:32;-4.70;59.00
14585;DHT22;7379;51.506;11.876;2024-01-10T04:44:59;-4.70;59.00
14585;DHT22;7379;51.506;11.876;2024-01-10T04:47:25;-4.70;59.00
14585;DHT22;7379;51.506;11.876;2024-01-10T04:49:52;-4.70;59.00
14585;DHT22;7379;51.506;11.876;2024-01-10T04:52:19;-4.70;59.00
14585;DHT22;7379;51.506;11.876;2024-01-10T04:54:46;-4.70;59.00
14585;DHT22;7379;51.506;11.876;2024-01-10T04:57:12;-4.70;59.10
14585;DHT22;7379;51.506;11.876;2024-01-10T04:59:40;-4.70;59.00
14585;DHT22;7379;51.506;11.876;2024-01-10T05:02:07;-4.70;59.00
14585;DHT22;7379;51.506;11.876;2024-01-10T05:04:34;-4.70;59.00
14585;DHT22;7379;51.506;11.876;2024-01-10T05:07:01;-4.70;59.00
14585;DHT22;7379;51.506;11.876;2024-01-10T05:09:27;-4.70;59.00
14585;DHT22;7379;51.506;11.876;2024-01-10T05:11:54;-4.70;59.00
14585;DHT22;7379;51.506;11.876;2024-01-10T05:14:21;-4.70;59.10
14585;DHT22;7379;51.506;11.876;2024-01-10T05:16:49;-4.70;59.00
14585;DHT22;7379;51.506;11.876;2024-01-10T05:19:17;-4.70;59.00
14585;DHT22;7379;51.506;11.876;2024-01-10T05:21:43;-4.70;59.10
14585;DHT22;7379;51.506;11.876;2024-01-10T05:24:10;-4.70;59.10
14585;DHT22;7379;51.506;11.876;2024-01-10T05:26:38;-4.70;59.10
14585;DHT22;7379;51.506;11.876;2024-01-10T05:29:04;-4.70;59.10
14585;DHT22;7379;51.506;11.876;2024-01-10T05:31:31;-4.70;59.00
14585;DHT22;7379;51.506;11.876;2024-01-10T05:33:59;-4.70;59.00
14585;DHT22;7379;51.506;11.876;2024-01-10T05:36:26;-4.70;59.00
14585;DHT22;7379;51.506;11.876;2024-01-10T05:38:52;-4.80;59.00
14585;DHT22;7379;51.506;11.876;2024-01-10T05:41:19;-4.80;59.00
14585;DHT22;7379;51.506;11.876;2024-01-10T05:43:47;-4.80;59.00
14585;DHT22;7379;51.506;11.876;2024-01-10T05:46:14;-4.80;58.90
14585;DHT22;7379;51.506;11.876;2024-01-10T05:48:41;-4.80;58.90
14585;DHT22;7379;51.506;11.876;2024-01-10T05:51:09;-4.80;58.90
14585;DHT22;7379;51.506;11.876;2024-01-10T05:53:37;-4.80;59.00
14585;DHT22;7379;51.506;11.876;2024-01-10T05:56:06;-4.80;59.00
14585;DHT22;7379;51.506;11.876;2024-01-10T05:58:32;-4.80;59.00
14585;DHT22;7379;51.506;11.876;2024-01-10T06:00:59;-4.80;59.00
14585;DHT22;7379;51.506;11.876;2024-01-10T06:03:26;-4.80;58.90
14585;DHT22;7379;51.506;11.876;2024-01-10T06:05:52;-4.80;58.90
14585;DHT22;7379;51.506;11.876;2024-01-10T06:08:20;-4.80;58.90
14585;DHT22;7379;51.506;11.876;2024-01-10T06:10:51;-4.80;59.00
14585;DHT22;7379;51.506;11.876;2024-01-10T06:13:17;-4.80;59.00
14585;DHT22;7379;51.506;11.876;2024-01-10T06:15:44;-4.90;58.80
14585;DHT22;7379;51.506;11.876;2024-01-10T06:18:11;-4.80;58.90
14585;DHT22;7379;51.506;11.876;2024-01-10T06:20:38;-4.90;58.90
14585;DHT22;7379;51.506;11.876;2024-01-10T06:23:04;-4.90;58.80
14585;DHT22;7379;51.506;11.876;2024-01-10T06:25:32;-4.90;58.80
14585;DHT22;7379;51.506;11.876;2024-01-10T06:27:59;-4.80;58.80
14585;DHT22;7379;51.506;11.876;2024-01-10T06:30:26;-4.90;58.80
14585;DHT22;7379;51.506;11.876;2024-01-10T06:32:53;-4.90;58.80
14585;DHT22;7379;51.506;11.876;2024-01-10T06:35:20;-4.90;58.80
14585;DHT22;7379;51.506;11.876;2024-01-10T06:37:47;-4.90;58.80
14585;DHT22;7379;51.506;11.876;2024-01-10T06:40:14;-4.90;58.80
14585;DHT22;7379;51.506;11.876;2024-01-10T06:42:43;-4.90;58.80
14585;DHT22;7379;51.506;11.876;2024-01-10T06:45:10;-4.90;58.80
14585;DHT22;7379;51.506;11.876;2024-01-10T06:47:38;-4.90;58.80
14585;DHT22;7379;51.506;11.876;2024-01-10T06:50:05;-4.90;58.90
14585;DHT22;7379;51.506;11.876;2024-01-10T06:52:34;-4.90;58.90
14585;DHT22;7379;51.506;11.876;2024-01-10T06:55:01;-4.90;58.80
14585;DHT22;7379;51.506;11.876;2024-01-10T06:57:29;-5.00;58.80
14585;DHT22;7379;51.506;11.876;2024-01-10T06:59:57;-5.00;58.80
14585;DHT22;7379;51.506;11.876;2024-01-10T07:02:25;-5.00;58.80
14585;DHT22;7379;51.506;11.876;2024-01-10T07:04:51;-5.00;58.70
14585;DHT22;7379;51.506;11.876;2024-01-10T07:07:18;-5.00;58.80
14585;DHT22;7379;51.506;11.876;2024-01-10T07:09:45;-5.00;58.70
14585;DHT22;7379;51.506;11.876;2024-01-10T07:12:11;-5.00;58.70
14585;DHT22;7379;51.506;11.876;2024-01-10T07:14:38;-5.00;58.70
14585;DHT22;7379;51.506;11.876;2024-01-10T07:17:07;-5.00;58.60
14585;DHT22;7379;51.506;11.876;2024-01-10T07:19:33;-5.00;58.70
14585;DHT22;7379;51.506;11.876;2024-01-10T07:22:00;-5.00;58.80
14585;DHT22;7379;51.506;11.876;2024-01-10T07:24:27;-5.00;58.70
14585;DHT22;7379;51.506;11.876;2024-01-10T07:26:54;-5.00;58.70
14585;DHT22;7379;51.506;11.876;2024-01-10T07:29:22;-5.00;58.70
14585;DHT22;7379;51.506;11.876;2024-01-10T07:31:49;-5.00;58.70
14585;DHT22;7379;51.506;11.876;2024-01-10T07:34:19;-5.00;58.80
14585;DHT22;7379;51.506;11.876;2024-01-10T07:36:46;-5.00;58.80
14585;DHT22;7379;51.506;11.876;2024-01-10T07:39:14;-5.00;58.80
14585;DHT22;7379;51.506;11.876;2024-01-10T07:41:43;-5.00;58.80
14585;DHT22;7379;51.506;11.876;2024-01-10T07:44:10;-5.00;58.80
14585;DHT22;7379;51.506;11.876;2024-01-10T07:46:37;-5.00;58.80
14585;DHT22;7379;51.506;11.876;2024-01-10T07:49:05;-5.00;58.90
14585;DHT22;7379;51.506;11.876;2024-01-10T07:51:34;-5.00;58.90
14585;DHT22;7379;51.506;11.876;2024-01-10T07:54:00;-5.00;58.90
14585;DHT22;7379;51.506;11.876;2024-01-10T07:56:28;-5.00;58.80
14585;DHT22;7379;51.506;11.876;2024-01-10T07:58:55;-5.10;58.80
14585;DHT22;7379;51.506;11.876;2024-01-10T08:01:22;-5.00;58.80
14585;DHT22;7379;51.506;11.876;2024-01-10T08:03:49;-5.00;58.80
14585;DHT22;7379;51.506;11.876;2024-01-10T08:06:15;-5.00;58.80
14585;DHT22;7379;51.506;11.876;2024-01-10T08:08:43;-5.00;58.80
14585;DHT22;7379;51.506;11.876;2024-01-10T08:11:10;-5.00;58.90
14585;DHT22;7379;51.506;11.876;2024-01-10T08:13:37;-5.00;58.90
14585;DHT22;7379;51.506;11.876;2024-01-10T08:16:04;-5.00;58.90
14585;DHT22;7379;51.506;11.876;2024-01-10T08:18:34;-5.00;58.90
14585;DHT22;7379;51.506;11.876;2024-01-10T08:21:00;-5.00;59.00
14585;DHT22;7379;51.506;11.876;2024-01-10T08:23:27;-5.00;59.00
14585;DHT22;7379;51.506;11.876;2024-01-10T08:25:55;-5.00;59.00
14585;DHT22;7379;51.506;11.876;2024-01-10T08:28:22;-5.00;58.90
14585;DHT22;7379;51.506;11.876;2024-01-10T08:30:49;-5.00;59.00
14585;DHT22;7379;51.506;11.876;2024-01-10T08:33:16;-5.00;59.00
14585;DHT22;7379;51.506;11.876;2024-01-10T08:35:43;-5.00;59.00
14585;DHT22;7379;51.506;11.876;2024-01-10T08:38:10;-5.00;59.00
14585;DHT22;7379;51.506;11.876;2024-01-10T08:40:37;-5.00;59.00
14585;DHT22;7379;51.506;11.876;2024-01-10T08:43:05;-5.00;59.00
14585;DHT22;7379;51.506;11.876;2024-01-10T08:45:32;-5.00;59.00
14585;DHT22;7379;51.506;11.876;2024-01-10T08:47:58;-5.00;58.90
14585;DHT22;7379;51.506;11.876;2024-01-10T08:50:25;-5.10;58.80
14585;DHT22;7379;51.506;11.876;2024-01-10T08:52:52;-5.10;58.80
14585;DHT22;7379;51.506;11.876;2024-01-10T08:55:18;-5.10;59.00
14585;DHT22;7379;51.506;11.876;2024-01-10T08:57:45;-5.10;59.10
14585;DHT22;7379;51.506;11.876;2024-01-10T09:00:16;-5.10;59.20
14585;DHT22;7379;51.506;11.876;2024-01-10T09:02:43;-5.10;59.30
14585;DHT22;7379;51.506;11.876;2024-01-10T09:05:09;-5.10;59.40
14585;DHT22;7379;51.506;11.876;2024-01-10T09:07:36;-5.10;59.40
14585;DHT22;7379;51.506;11.876;2024-01-10T09:10:04;-5.10;59.50
14585;DHT22;7379;51.506;11.876;2024-01-10T09:12:33;-5.10;59.50
14585;DHT22;7379;51.506;11.876;2024-01-10T09:14:59;-5.10;59.50
14585;DHT22;7379;51.506;11.876;2024-01-10T09:17:27;-5.10;59.60
14585;DHT22;7379;51.506;11.876;2024-01-10T09:19:54;-5.10;59.50
14585;DHT22;7379;51.506;11.876;2024-01-10T09:22:21;-5.10;59.60
14585;DHT22;7379;51.506;11.876;2024-01-10T09:24:48;-5.10;59.60
14585;DHT22;7379;51.506;11.876;2024-01-10T09:27:15;-5.10;59.60
14585;DHT22;7379;51.506;11.876;2024-01-10T09:29:41;-5.10;59.60
14585;DHT22;7379;51.506;11.876;2024-01-10T09:32:08;-5.10;59.60
14585;DHT22;7379;51.506;11.876;2024-01-10T09:34:36;-5.10;59.60
14585;DHT22;7379;51.506;11.876;2024-01-10T09:37:03;-5.10;59.60
14585;DHT22;7379;51.506;11.876;2024-01-10T09:39:30;-5.00;59.80
14585;DHT22;7379;51.506;11.876;2024-01-10T09:41:58;-5.00;59.80
14585;DHT22;7379;51.506;11.876;2024-01-10T09:44:26;-5.00;59.80
14585;DHT22;7379;51.506;11.876;2024-01-10T09:46:55;-5.00;59.80
14585;DHT22;7379;51.506;11.876;2024-01-10T09:49:22;-5.00;59.80
14585;DHT22;7379;51.506;11.876;2024-01-10T09:51:50;-5.00;59.80
14585;DHT22;7379;51.506;11.876;2024-01-10T09:54:21;-5.00;59.80
14585;DHT22;7379;51.506;11.876;2024-01-10T09:56:48;-5.00;59.80
14585;DHT22;7379;51.506;11.876;2024-01-10T09:59:15;-5.00;59.80
14585;DHT22;7379;51.506;11.876;2024-01-10T10:01:42;-5.00;59.80
14585;DHT22;7379;51.506;11.876;2024-01-10T10:04:12;-5.00;59.80
14585;DHT22;7379;51.506;11.876;2024-01-10T10:06:39;-5.00;59.90
14585;DHT22;7379;51.506;11.876;2024-01-10T10:09:08;-5.00;59.90
14585;DHT22;7379;51.506;11.876;2024-01-10T10:11:35;-5.00;59.80
14585;DHT22;7379;51.506;11.876;2024-01-10T10:14:14;-4.90;60.00
14585;DHT22;7379;51.506;11.876;2024-01-10T10:16:41;-4.90;60.00
14585;DHT22;7379;51.506;11.876;2024-01-10T10:19:08;-4.90;60.00
14585;DHT22;7379;51.506;11.876;2024-01-10T10:21:37;-4.90;60.00
14585;DHT22;7379;51.506;11.876;2024-01-10T10:24:04;-4.90;60.00
14585;DHT22;7379;51.506;11.876;2024-01-10T10:26:34;-4.90;60.00
14585;DHT22;7379;51.506;11.876;2024-01-10T10:29:01;-4.90;60.00
14585;DHT22;7379;51.506;11.876;2024-01-10T10:31:28;-4.90;60.00
14585;DHT22;7379;51.506;11.876;2024-01-10T10:33:59;-4.90;60.00
14585;DHT22;7379;51.506;11.876;2024-01-10T10:36:26;-4.90;60.00
14585;DHT22;7379;51.506;11.876;2024-01-10T10:38:52;-4.90;60.00
14585;DHT22;7379;51.506;11.876;2024-01-10T10:41:20;-4.90;60.00
14585;DHT22;7379;51.506;11.876;2024-01-10T10:43:49;-4.80;60.10
14585;DHT22;7379;51.506;11.876;2024-01-10T10:46:18;-4.80;60.10
14585;DHT22;7379;51.506;11.876;2024-01-10T10:48:48;-4.80;60.20
14585;DHT22;7379;51.506;11.876;2024-01-10T10:51:18;-4.80;60.10
14585;DHT22;7379;51.506;11.876;2024-01-10T10:53:48;-4.80;60.20
14585;DHT22;7379;51.506;11.876;2024-01-10T10:56:15;-4.80;60.90
14585;DHT22;7379;51.506;11.876;2024-01-10T10:58:43;-4.80;60.20
14585;DHT22;7379;51.506;11.876;2024-01-10T11:01:13;-4.80;60.20
14585;DHT22;7379;51.506;11.876;2024-01-10T11:03:40;-4.80;60.20
14585;DHT22;7379;51.506;11.876;2024-01-10T11:06:08;-4.80;60.30
14585;DHT22;7379;51.506;11.876;2024-01-10T11:08:38;-4.80;60.20
14585;DHT22;7379;51.506;11.876;2024-01-10T11:11:13;-4.80;60.30
14585;DHT22;7379;51.506;11.876;2024-01-10T11:13:56;-4.70;60.40
14585;DHT22;7379;51.506;11.876;2024-01-10T11:16:50;-4.70;60.40
14585;DHT22;7379;51.506;11.876;2024-01-10T11:19:40;-4.70;60.50
14585;DHT22;7379;51.506;11.876;2024-01-10T11:22:17;-4.70;60.50
14585;DHT22;7379;51.506;11.876;2024-01-10T11:24:46;-4.70;60.50
14585;DHT22;7379;51.506;11.876;2024-01-10T11:27:14;-4.70;60.50
14585;DHT22;7379;51.506;11.876;2024-01-10T11:29:43;-4.70;60.60
14585;DHT22;7379;51.506;11.876;2024-01-10T11:32:15;-4.70;60.60
14585;DHT22;7379;51.506;11.876;2024-01-10T11:34:54;-4.70;60.60
14585;DHT22;7379;51.506;11.876;2024-01-10T11:37:21;-4.70;60.60
14585;DHT22;7379;51.506;11.876;2024-01-10T11:39:50;-4.70;60.50
14585;DHT22;7379;51.506;11.876;2024-01-10T11:42:22;-4.60;60.60
14585;DHT22;7379;51.506;11.876;2024-01-10T11:44:49;-4.60;60.60
14585;DHT22;7379;51.506;11.876;2024-01-10T11:47:19;-4.60;60.60
14585;DHT22;7379;51.506;11.876;2024-01-10T11:49:56;-4.60;60.70
14585;DHT22;7379;51.506;11.876;2024-01-10T11:52:23;-4.60;60.70
14585;DHT22;7379;51.506;11.876;2024-01-10T11:54:53;-4.60;60.60
14585;DHT22;7379;51.506;11.876;2024-01-10T11:57:21;-4.60;60.70
14585;DHT22;7379;51.506;11.876;2024-01-10T11:59:50;-4.60;60.70
14585;DHT22;7379;51.506;11.876;2024-01-10T12:02:19;-4.60;60.60
14585;DHT22;7379;51.506;11.876;2024-01-10T12:04:47;-4.60;60.70
14585;DHT22;7379;51.506;11.876;2024-01-10T12:07:15;-4.60;60.70
14585;DHT22;7379;51.506;11.876;2024-01-10T12:09:42;-4.50;60.70
14585;DHT22;7379;51.506;11.876;2024-01-10T12:12:09;-4.50;60.70
14585;DHT22;7379;51.506;11.876;2024-01-10T12:14:36;-4.50;60.70
14585;DHT22;7379;51.506;11.876;2024-01-10T12:17:05;-4.50;60.70
14585;DHT22;7379;51.506;11.876;2024-01-10T12:19:35;-4.50;60.70
14585;DHT22;7379;51.506;11.876;2024-01-10T12:22:02;-4.50;60.80
14585;DHT22;7379;51.506;11.876;2024-01-10T12:24:30;-4.50;60.80
14585;DHT22;7379;51.506;11.876;2024-01-10T12:26:57;-4.50;60.80
14585;DHT22;7379;51.506;11.876;2024-01-10T12:29:25;-4.50;60.80
14585;DHT22;7379;51.506;11.876;2024-01-10T12:31:53;-4.50;60.90
14585;DHT22;7379;51.506;11.876;2024-01-10T12:34:20;-4.50;60.90
14585;DHT22;7379;51.506;11.876;2024-01-10T12:36:49;-4.50;60.90
14585;DHT22;7379;51.506;11.876;2024-01-10T12:39:16;-4.40;60.90
14585;DHT22;7379;51.506;11.876;2024-01-10T12:41:42;-4.40;60.90
14585;DHT22;7379;51.506;11.876;2024-01-10T12:44:10;-4.40;61.00
14585;DHT22;7379;51.506;11.876;2024-01-10T12:46:49;-4.40;61.10
14585;DHT22;7379;51.506;11.876;2024-01-10T12:49:17;-4.40;61.10
14585;DHT22;7379;51.506;11.876;2024-01-10T12:51:43;-4.40;61.20
14585;DHT22;7379;51.506;11.876;2024-01-10T12:54:11;-4.40;61.20
14585;DHT22;7379;51.506;11.876;2024-01-10T12:56:38;-4.40;61.20
14585;DHT22;7379;51.506;11.876;2024-01-10T12:59:05;-4.40;61.30
14585;DHT22;7379;51.506;11.876;2024-01-10T13:01:35;-4.30;61.40
14585;DHT22;7379;51.506;11.876;2024-01-10T13:04:02;-4.30;61.30
14585;DHT22;7379;51.506;11.876;2024-01-10T13:06:29;-4.30;61.30
14585;DHT22;7379;51.506;11.876;2024-01-10T13:08:55;-4.30;61.40
14585;DHT22;7379;51.506;11.876;2024-01-10T13:11:23;-4.30;61.30
14585;DHT22;7379;51.506;11.876;2024-01-10T13:13:50;-4.30;61.30
14585;DHT22;7379;51.506;11.876;2024-01-10T13:16:17;-4.30;61.40
14585;DHT22;7379;51.506;11.876;2024-01-10T13:18:43;-4.30;61.40
14585;DHT22;7379;51.506;11.876;2024-01-10T13:21:10;-4.30;61.50
14585;DHT22;7379;51.506;11.876;2024-01-10T13:23:37;-4.30;61.40
14585;DHT22;7379;51.506;11.876;2024-01-10T13:26:04;-4.30;61.40
14585;DHT22;7379;51.506;11.876;2024-01-10T13:28:32;-4.30;61.50
14585;DHT22;7379;51.506;11.876;2024-01-10T13:30:58;-4.20;61.50
14585;DHT22;7379;51.506;11.876;2024-01-10T13:33:25;-4.20;61.60
14585;DHT22;7379;51.506;11.876;2024-01-10T13:35:52;-4.30;61.50
14585;DHT22;7379;51.506;11.876;2024-01-10T13:38:19;-4.30;61.50
14585;DHT22;7379;51.506;11.876;2024-01-10T13:40:46;-4.20;61.60
14585;DHT22;7379;51.506;11.876;2024-01-10T13:43:12;-4.20;61.60
14585;DHT22;7379;51.506;11.876;2024-01-10T13:45:42;-4.20;61.60
14585;DHT22;7379;51.506;11.876;2024-01-10T13:48:09;-4.20;61.60
14585;DHT22;7379;51.506;11.876;2024-01-10T13:50:36;-4.20;61.50
14585;DHT22;7379;51.506;11.876;2024-01-10T13:53:03;-4.20;61.50
14585;DHT22;7379;51.506;11.876;2024-01-10T13:55:30;-4.20;61.70
14585;DHT22;7379;51.506;11.876;2024-01-10T13:57:58;-4.20;61.70
14585;DHT22;7379;51.506;11.876;2024-01-10T14:00:24;-4.10;61.70
14585;DHT22;7379;51.506;11.876;2024-01-10T14:02:53;-4.10;61.70
14585;DHT22;7379;51.506;11.876;2024-01-10T14:05:25;-4.10;61.70
14585;DHT22;7379;51.506;11.876;2024-01-10T14:07:52;-4.10;61.70
14585;DHT22;7379;51.506;11.876;2024-01-10T14:10:19;-4.10;61.60
14585;DHT22;7379;51.506;11.876;2024-01-10T14:12:45;-4.10;61.60
14585;DHT22;7379;51.506;11.876;2024-01-10T14:15:12;-4.10;61.60
14585;DHT22;7379;51.506;11.876;2024-01-10T14:17:40;-4.10;61.60
14585;DHT22;7379;51.506;11.876;2024-01-10T14:20:10;-4.10;61.60
14585;DHT22;7379;51.506;11.876;2024-01-10T14:22:38;-4.10;61.60
14585;DHT22;7379;51.506;11.876;2024-01-10T14:25:07;-4.10;61.60
14585;DHT22;7379;51.506;11.876;2024-01-10T14:27:34;-4.10;61.60
14585;DHT22;7379;51.506;11.876;2024-01-10T14:30:04;-4.10;61.60
14585;DHT22;7379;51.506;11.876;2024-01-10T14:32:33;-4.10;61.70
14585;DHT22;7379;51.506;11.876;2024-01-10T14:35:00;-4.10;61.70
14585;DHT22;7379;51.506;11.876;2024-01-10T14:37:28;-4.00;61.80
14585;DHT22;7379;51.506;11.876;2024-01-10T14:39:55;-4.00;61.80
14585;DHT22;7379;51.506;11.876;2024-01-10T14:42:22;-4.00;61.80
14585;DHT22;7379;51.506;11.876;2024-01-10T14:44:48;-4.00;61.80
14585;DHT22;7379;51.506;11.876;2024-01-10T14:47:15;-4.00;61.80
14585;DHT22;7379;51.506;11.876;2024-01-10T14:49:42;-4.00;61.80
14585;DHT22;7379;51.506;11.876;2024-01-10T14:52:08;-4.00;61.80
14585;DHT22;7379;51.506;11.876;2024-01-10T14:54:36;-4.00;61.80
14585;DHT22;7379;51.506;11.876;2024-01-10T14:57:03;-4.00;61.80
14585;DHT22;7379;51.506;11.876;2024-01-10T14:59:30;-4.00;61.80
14585;DHT22;7379;51.506;11.876;2024-01-10T15:01:57;-4.00;61.90
14585;DHT22;7379;51.506;11.876;2024-01-10T15:04:23;-4.00;61.90
14585;DHT22;7379;51.506;11.876;2024-01-10T15:06:50;-4.00;61.90
14585;DHT22;7379;51.506;11.876;2024-01-10T15:09:17;-4.00;61.90
14585;DHT22;7379;51.506;11.876;2024-01-10T15:11:45;-4.00;61.90
14585;DHT22;7379;51.506;11.876;2024-01-10T15:14:12;-4.00;61.90
14585;DHT22;7379;51.506;11.876;2024-01-10T15:16:39;-4.00;61.90
14585;DHT22;7379;51.506;11.876;2024-01-10T15:19:06;-4.00;62.00
14585;DHT22;7379;51.506;11.876;2024-01-10T15:21:32;-4.00;62.00
14585;DHT22;7379;51.506;11.876;2024-01-10T15:23:59;-4.00;62.00
14585;DHT22;7379;51.506;11.876;2024-01-10T15:26:26;-4.00;62.10
14585;DHT22;7379;51.506;11.876;2024-01-10T15:28:54;-4.00;62.10
14585;DHT22;7379;51.506;11.876;2024-01-10T15:31:21;-4.00;62.10